createdAt,value
2022-07-28T00:00:47.053Z,99.90
2022-07-28T00:03:13.991Z,99.90
2022-07-28T00:05:41.729Z,99.90
2022-07-28T00:08:10.404Z,99.90
2022-07-28T00:10:37.411Z,99.90
2022-07-28T00:13:07.004Z,99.90
2022-07-28T00:15:34.518Z,99.90
2022-07-28T00:18:01.549Z,99.90
2022-07-28T00:20:28.922Z,99.90
2022-07-28T00:22:55.856Z,99.90
2022-07-28T00:25:22.907Z,99.90
2022-07-28T00:27:49.822Z,99.90
2022-07-28T00:30:16.935Z,99.90
2022-07-28T00:32:44.031Z,99.90
2022-07-28T00:35:11.013Z,99.90
2022-07-28T00:37:40.040Z,99.90
2022-07-28T00:40:07.759Z,99.90
2022-07-28T00:42:34.662Z,99.90
2022-07-28T00:45:01.941Z,99.90
2022-07-28T00:47:33.928Z,99.90
2022-07-28T00:50:01.915Z,99.90
2022-07-28T00:52:28.959Z,99.90
2022-07-28T00:54:57.355Z,99.90
2022-07-28T00:57:24.348Z,99.90
2022-07-28T00:59:51.312Z,99.90
2022-07-28T01:02:19.225Z,99.90
2022-07-28T01:04:46.582Z,99.90
2022-07-28T01:07:13.522Z,99.90
2022-07-28T01:09:59.206Z,99.90
2022-07-28T01:12:26.100Z,99.90
2022-07-28T01:15:07.545Z,99.90
2022-07-28T01:17:42.910Z,99.90
2022-07-28T01:20:15.616Z,99.90
2022-07-28T01:22:48.814Z,99.90
2022-07-28T01:25:24.913Z,99.90
2022-07-28T01:27:57.183Z,99.90
2022-07-28T01:30:27.881Z,99.90
2022-07-28T01:33:13.333Z,99.90
2022-07-28T01:35:45.717Z,99.90
2022-07-28T01:38:13.832Z,99.90
2022-07-28T01:40:43.189Z,99.90
2022-07-28T01:43:13.210Z,99.90
2022-07-28T01:45:41.373Z,99.90
2022-07-28T01:48:09.119Z,99.90
2022-07-28T01:50:37.669Z,99.90
2022-07-28T01:53:05.279Z,99.90
2022-07-28T01:55:33.093Z,99.90
2022-07-28T01:58:00.621Z,99.90
2022-07-28T02:00:28.217Z,99.90
2022-07-28T02:02:57.085Z,99.90
2022-07-28T02:05:24.761Z,99.90
2022-07-28T02:07:53.533Z,99.90
2022-07-28T02:10:20.895Z,99.90
2022-07-28T02:12:49.229Z,99.90
2022-07-28T02:15:16.339Z,99.90
2022-07-28T02:17:45.227Z,99.90
2022-07-28T02:20:13.161Z,99.90
2022-07-28T02:22:40.583Z,99.90
2022-07-28T02:25:07.901Z,99.90
2022-07-28T02:27:40.041Z,99.90
2022-07-28T02:30:11.729Z,99.90
2022-07-28T02:32:41.229Z,99.90
2022-07-28T02:35:29.085Z,99.90
2022-07-28T02:38:05.476Z,99.90
2022-07-28T02:40:36.381Z,99.90
2022-07-28T02:43:04.354Z,99.90
2022-07-28T02:45:32.279Z,99.90
2022-07-28T02:48:05.842Z,99.90
2022-07-28T02:50:32.808Z,99.90
2022-07-28T02:53:15.735Z,99.90
2022-07-28T02:55:44.788Z,99.90
2022-07-28T02:58:12.172Z,99.90
2022-07-28T03:00:40.238Z,99.90
2022-07-28T03:03:08.329Z,99.90
2022-07-28T03:05:36.095Z,99.90
2022-07-28T03:08:03.237Z,99.90
2022-07-28T03:10:32.824Z,99.90
2022-07-28T03:13:01.826Z,99.90
2022-07-28T03:15:28.815Z,99.90
2022-07-28T03:17:56.127Z,99.90
2022-07-28T03:20:23.186Z,99.90
2022-07-28T03:22:50.123Z,99.90
2022-07-28T03:25:19.685Z,99.90
2022-07-28T03:27:48.524Z,99.90
2022-07-28T03:30:19.322Z,99.90
2022-07-28T03:32:48.449Z,99.90
2022-07-28T03:35:15.607Z,99.90
2022-07-28T03:37:47.121Z,99.90
2022-07-28T03:40:14.505Z,99.90
2022-07-28T03:42:44.107Z,99.90
2022-07-28T03:45:11.495Z,99.90
2022-07-28T03:47:38.479Z,99.90
2022-07-28T03:50:05.662Z,99.90
2022-07-28T03:52:32.690Z,99.90
2022-07-28T03:54:59.644Z,99.90
2022-07-28T03:57:26.711Z,99.90
2022-07-28T03:59:53.633Z,99.90
2022-07-28T04:02:20.698Z,99.90
2022-07-28T04:04:47.748Z,99.90
2022-07-28T04:07:14.676Z,99.90
2022-07-28T04:09:41.677Z,99.90
2022-07-28T04:12:08.858Z,99.90
2022-07-28T04:14:35.774Z,99.90
2022-07-28T04:17:02.863Z,99.90
2022-07-28T04:19:29.845Z,99.90
2022-07-28T04:21:56.860Z,99.90
2022-07-28T04:24:23.837Z,99.90
2022-07-28T04:26:50.880Z,99.90
2022-07-28T04:29:23.242Z,99.90
2022-07-28T04:31:54.706Z,99.90
2022-07-28T04:34:21.881Z,99.90
2022-07-28T04:36:48.832Z,99.90
2022-07-28T04:39:16.393Z,99.90
2022-07-28T04:41:43.300Z,99.90
2022-07-28T04:44:12.301Z,99.90
2022-07-28T04:46:39.688Z,99.90
2022-07-28T04:49:06.838Z,99.90
2022-07-28T04:51:35.164Z,99.90
2022-07-28T04:54:02.154Z,99.90
2022-07-28T04:56:29.095Z,99.90
2022-07-28T04:58:56.282Z,99.90
2022-07-28T05:01:24.005Z,99.90
2022-07-28T05:03:51.010Z,99.90
2022-07-28T05:06:18.746Z,99.90
2022-07-28T05:08:45.696Z,99.90
2022-07-28T05:11:12.645Z,99.90
2022-07-28T05:13:39.597Z,99.90
2022-07-28T05:16:06.721Z,99.90
2022-07-28T05:18:33.642Z,99.90
2022-07-28T05:21:00.724Z,99.90
2022-07-28T05:23:27.663Z,99.90
2022-07-28T05:25:54.772Z,99.90
2022-07-28T05:28:21.720Z,99.90
2022-07-28T05:30:48.679Z,99.90
2022-07-28T05:33:16.052Z,99.90
2022-07-28T05:35:44.716Z,99.90
2022-07-28T05:38:11.751Z,99.90
2022-07-28T05:40:38.940Z,99.90
2022-07-28T05:43:06.107Z,99.90
2022-07-28T05:45:34.292Z,99.90
2022-07-28T05:48:01.162Z,99.90
2022-07-28T05:50:28.040Z,99.90
2022-07-28T05:52:54.911Z,99.90
2022-07-28T05:55:21.832Z,99.90
2022-07-28T05:57:48.765Z,99.90
2022-07-28T06:00:16.862Z,99.90
2022-07-28T06:02:49.666Z,99.90
2022-07-28T06:05:17.506Z,99.90
2022-07-28T06:07:44.881Z,99.90
2022-07-28T06:10:15.922Z,99.90
2022-07-28T06:12:43.520Z,99.90
2022-07-28T06:15:21.786Z,99.90
2022-07-28T06:17:52.554Z,99.90
2022-07-28T06:20:20.195Z,99.90
2022-07-28T06:22:48.379Z,99.90
2022-07-28T06:25:18.380Z,99.90
2022-07-28T06:27:46.083Z,99.90
2022-07-28T06:30:13.383Z,99.90
2022-07-28T06:32:40.264Z,99.90
2022-07-28T06:35:08.096Z,99.90
2022-07-28T06:37:35.204Z,99.90
2022-07-28T06:40:02.491Z,99.90
2022-07-28T06:42:29.535Z,99.90
2022-07-28T06:44:59.270Z,99.90
2022-07-28T06:47:27.012Z,99.90
2022-07-28T06:49:53.954Z,99.90
2022-07-28T06:52:22.100Z,99.90
2022-07-28T06:54:52.279Z,99.90
2022-07-28T06:57:20.119Z,99.90
2022-07-28T06:59:47.297Z,99.90
2022-07-28T07:02:14.561Z,99.90
2022-07-28T07:04:43.006Z,99.90
2022-07-28T07:07:14.885Z,99.90
2022-07-28T07:09:44.088Z,99.90
2022-07-28T07:12:10.964Z,99.90
2022-07-28T07:14:37.873Z,99.90
2022-07-28T07:17:04.840Z,99.90
2022-07-28T07:19:31.812Z,99.90
2022-07-28T07:21:58.704Z,99.90
2022-07-28T07:24:25.651Z,99.90
2022-07-28T07:26:52.605Z,99.90
2022-07-28T07:29:22.359Z,99.90
2022-07-28T07:31:52.989Z,99.90
2022-07-28T07:34:20.557Z,99.90
2022-07-28T07:36:47.399Z,99.90
2022-07-28T07:39:14.423Z,99.90
2022-07-28T07:41:42.253Z,99.90
2022-07-28T07:44:10.021Z,99.90
2022-07-28T07:46:37.170Z,99.90
2022-07-28T07:49:04.469Z,99.90
2022-07-28T07:51:31.891Z,99.90
2022-07-28T07:53:58.770Z,99.90
2022-07-28T07:56:25.655Z,99.90
2022-07-28T07:58:56.883Z,99.90
2022-07-28T08:01:24.448Z,99.90
2022-07-28T08:03:51.608Z,99.90
2022-07-28T08:06:26.207Z,99.90
2022-07-28T08:08:54.471Z,99.90
2022-07-28T08:11:21.487Z,99.90
2022-07-28T08:13:48.664Z,99.90
2022-07-28T08:16:15.741Z,99.90
2022-07-28T08:18:42.919Z,99.90
2022-07-28T08:21:09.828Z,99.90
2022-07-28T08:23:36.949Z,99.90
2022-07-28T08:26:04.667Z,99.90
2022-07-28T08:28:31.672Z,99.90
2022-07-28T08:30:59.317Z,99.90
2022-07-28T08:33:26.422Z,99.90
2022-07-28T08:35:53.433Z,99.90
2022-07-28T08:38:20.423Z,99.90
2022-07-28T08:40:49.042Z,99.90
2022-07-28T08:43:23.548Z,99.90
2022-07-28T08:45:57.770Z,99.90
2022-07-28T08:48:27.443Z,99.90
2022-07-28T08:50:56.582Z,99.90
2022-07-28T08:53:23.420Z,99.90
2022-07-28T08:55:51.327Z,99.90
2022-07-28T08:58:18.886Z,99.90
2022-07-28T09:00:46.391Z,99.90
2022-07-28T09:03:13.653Z,99.90
2022-07-28T09:05:42.517Z,99.90
2022-07-28T09:08:10.814Z,99.90
2022-07-28T09:10:37.933Z,99.90
2022-07-28T09:13:04.915Z,99.90
2022-07-28T09:15:33.105Z,99.90
2022-07-28T09:18:00.212Z,99.90
2022-07-28T09:20:28.338Z,99.90
2022-07-28T09:23:01.984Z,99.90
2022-07-28T09:25:30.445Z,99.90
2022-07-28T09:28:05.398Z,99.90
2022-07-28T09:30:33.539Z,99.90
2022-07-28T09:33:42.270Z,99.90
2022-07-28T09:36:13.061Z,99.90
2022-07-28T09:38:40.837Z,99.90
2022-07-28T09:41:07.744Z,99.90
2022-07-28T09:43:36.098Z,99.90
2022-07-28T09:46:07.164Z,99.90
2022-07-28T09:48:34.940Z,99.90
2022-07-28T09:51:13.398Z,99.90
2022-07-28T09:53:40.880Z,99.90
2022-07-28T09:56:07.981Z,99.90
2022-07-28T09:58:35.140Z,99.90
2022-07-28T10:01:08.551Z,99.90
2022-07-28T10:03:36.523Z,99.90
2022-07-28T10:06:11.660Z,99.90
2022-07-28T10:08:47.923Z,99.90
2022-07-28T10:11:15.965Z,99.90
2022-07-28T10:13:51.431Z,99.90
2022-07-28T10:16:19.135Z,99.90
2022-07-28T10:18:47.697Z,99.90
2022-07-28T10:21:16.979Z,99.90
2022-07-28T10:23:51.429Z,99.90
2022-07-28T10:26:20.534Z,99.90
2022-07-28T10:28:49.256Z,99.90
2022-07-28T10:31:20.124Z,99.90
2022-07-28T10:33:49.070Z,99.90
2022-07-28T10:36:17.943Z,99.90
2022-07-28T10:38:45.028Z,99.90
2022-07-28T10:41:13.163Z,99.90
2022-07-28T10:43:42.961Z,99.90
2022-07-28T10:46:16.274Z,99.90
2022-07-28T10:48:44.665Z,99.90
2022-07-28T10:51:12.099Z,99.90
2022-07-28T10:54:03.910Z,99.90
2022-07-28T10:56:51.223Z,99.90
2022-07-28T10:59:29.111Z,99.90
2022-07-28T11:01:56.427Z,99.90
2022-07-28T11:04:41.694Z,99.90
2022-07-28T11:07:12.260Z,99.90
2022-07-28T11:09:39.097Z,99.90
2022-07-28T11:12:06.394Z,99.90
2022-07-28T11:14:39.386Z,99.90
2022-07-28T11:17:10.373Z,99.90
2022-07-28T11:20:00.753Z,99.90
2022-07-28T11:22:33.422Z,99.90
2022-07-28T11:25:20.401Z,99.90
2022-07-28T11:27:52.325Z,99.90
2022-07-28T11:30:19.788Z,99.90
2022-07-28T11:32:53.644Z,99.90
2022-07-28T11:35:21.487Z,99.90
2022-07-28T11:38:00.685Z,99.90
2022-07-28T11:40:31.396Z,99.90
2022-07-28T11:43:17.103Z,99.90
2022-07-28T11:45:52.730Z,99.90
2022-07-28T11:48:23.402Z,99.90
2022-07-28T11:51:02.734Z,99.90
2022-07-28T11:53:55.731Z,99.90
2022-07-28T11:56:23.919Z,99.90
2022-07-28T11:59:01.418Z,99.90
2022-07-28T12:01:32.143Z,99.50
2022-07-28T12:03:59.815Z,98.80
2022-07-28T12:06:35.461Z,99.90
2022-07-28T12:09:06.336Z,99.70
2022-07-28T12:11:34.509Z,99.10
2022-07-28T12:14:02.161Z,99.60
2022-07-28T12:16:30.115Z,99.40
2022-07-28T12:19:00.753Z,99.90
2022-07-28T12:21:46.148Z,99.90
2022-07-28T12:24:16.599Z,99.90
2022-07-28T12:26:49.132Z,99.90
2022-07-28T12:29:16.786Z,99.20
2022-07-28T12:31:59.277Z,98.40
2022-07-28T12:34:29.284Z,98.40
2022-07-28T12:36:57.899Z,98.80
2022-07-28T12:39:26.165Z,99.10
2022-07-28T12:42:00.116Z,98.40
2022-07-28T12:44:48.962Z,99.50
2022-07-28T12:47:17.881Z,99.00
2022-07-28T12:49:45.074Z,98.10
2022-07-28T12:52:22.319Z,98.50
2022-07-28T12:54:54.934Z,98.40
2022-07-28T12:57:46.168Z,98.50
2022-07-28T13:00:16.919Z,98.20
2022-07-28T13:02:43.870Z,97.70
2022-07-28T13:05:26.189Z,97.50
2022-07-28T13:08:03.261Z,98.20
2022-07-28T13:10:32.362Z,98.20
2022-07-28T13:13:02.713Z,98.20
2022-07-28T13:15:29.828Z,97.90
2022-07-28T13:17:58.047Z,97.90
2022-07-28T13:20:25.133Z,98.60
2022-07-28T13:22:52.999Z,98.60
2022-07-28T13:25:20.540Z,97.60
2022-07-28T13:27:52.237Z,97.80
2022-07-28T13:30:22.497Z,97.90
2022-07-28T13:32:49.722Z,98.50
2022-07-28T13:35:18.954Z,98.00
2022-07-28T13:37:47.704Z,98.10
2022-07-28T13:40:14.679Z,98.40
2022-07-28T13:42:53.274Z,98.20
2022-07-28T13:45:24.129Z,97.90
2022-07-28T13:47:52.331Z,98.20
2022-07-28T13:50:20.861Z,98.10
2022-07-28T13:52:48.394Z,97.20
2022-07-28T13:55:17.814Z,96.80
2022-07-28T13:57:50.148Z,96.80
2022-07-28T14:00:18.646Z,96.60
2022-07-28T14:02:47.318Z,96.40
2022-07-28T14:05:15.422Z,96.20
2022-07-28T14:07:42.501Z,97.00
2022-07-28T14:10:15.794Z,96.70
2022-07-28T14:12:42.627Z,97.00
2022-07-28T14:15:12.958Z,97.00
2022-07-28T14:17:44.102Z,96.50
2022-07-28T14:20:13.372Z,96.30
2022-07-28T14:22:40.718Z,95.90
2022-07-28T14:25:07.944Z,95.60
2022-07-28T14:27:35.199Z,96.20
2022-07-28T14:30:03.580Z,96.40
2022-07-28T14:32:31.139Z,96.50
2022-07-28T14:34:58.071Z,97.30
2022-07-28T14:37:25.281Z,97.40
2022-07-28T14:39:52.165Z,96.00
2022-07-28T14:42:19.138Z,95.20
2022-07-28T14:44:46.043Z,95.40
2022-07-28T14:47:13.234Z,94.60
2022-07-28T14:49:58.074Z,95.20
2022-07-28T14:52:29.581Z,94.50
2022-07-28T14:54:57.145Z,94.50
2022-07-28T14:57:48.077Z,94.50
2022-07-28T15:00:12.538Z,94.70
2022-07-28T15:02:39.600Z,94.50
2022-07-28T15:05:06.972Z,93.20
2022-07-28T15:07:33.893Z,93.50
2022-07-28T15:10:01.004Z,93.70
2022-07-28T15:12:28.198Z,93.70
2022-07-28T15:14:55.132Z,93.00
2022-07-28T15:17:21.993Z,92.60
2022-07-28T15:19:50.903Z,92.60
2022-07-28T15:22:17.925Z,92.30
2022-07-28T15:24:45.801Z,90.90
2022-07-28T15:27:13.053Z,90.90
2022-07-28T15:29:39.922Z,90.40
2022-07-28T15:32:10.706Z,90.90
2022-07-28T15:34:40.041Z,91.30
2022-07-28T15:37:07.246Z,92.10
2022-07-28T15:39:34.249Z,91.90
2022-07-28T15:42:01.371Z,91.20
2022-07-28T15:44:30.003Z,91.80
2022-07-28T15:46:56.967Z,91.20
2022-07-28T15:49:24.034Z,91.60
2022-07-28T15:51:50.980Z,91.20
2022-07-28T15:54:18.811Z,91.20
2022-07-28T15:56:46.158Z,92.10
2022-07-28T15:59:13.132Z,92.10
2022-07-28T16:01:45.602Z,92.50
2022-07-28T16:04:13.326Z,93.00
2022-07-28T16:06:59.357Z,92.90
2022-07-28T16:09:45.628Z,93.00
2022-07-28T16:12:14.343Z,93.50
2022-07-28T16:14:41.845Z,93.20
2022-07-28T16:17:09.978Z,93.20
2022-07-28T16:19:48.892Z,93.40
2022-07-28T16:22:18.512Z,93.70
2022-07-28T16:24:45.955Z,94.10
2022-07-28T16:27:12.875Z,94.00
2022-07-28T16:29:39.723Z,93.30
2022-07-28T16:32:06.733Z,93.10
2022-07-28T16:34:34.614Z,93.50
2022-07-28T16:37:01.863Z,93.60
2022-07-28T16:39:33.056Z,94.10
2022-07-28T16:42:00.086Z,94.50
2022-07-28T16:44:28.868Z,94.00
2022-07-28T16:46:56.143Z,94.20
2022-07-28T16:49:24.098Z,94.50
2022-07-28T16:51:51.403Z,94.30
2022-07-28T16:54:18.779Z,94.10
2022-07-28T16:56:46.049Z,94.00
2022-07-28T16:59:13.273Z,94.10
2022-07-28T17:01:45.528Z,93.80
2022-07-28T17:04:13.892Z,93.90
2022-07-28T17:06:41.230Z,93.90
2022-07-28T17:09:08.138Z,94.20
2022-07-28T17:11:35.870Z,94.30
2022-07-28T17:14:02.896Z,94.10
2022-07-28T17:16:29.939Z,93.80
2022-07-28T17:18:57.899Z,93.80
2022-07-28T17:21:25.803Z,93.80
2022-07-28T17:23:52.883Z,94.10
2022-07-28T17:29:06.981Z,94.50
2022-07-28T17:31:34.045Z,94.70
2022-07-28T17:34:01.323Z,94.40
2022-07-28T17:36:29.409Z,94.70
2022-07-28T17:38:56.325Z,94.70
2022-07-28T17:41:23.252Z,94.90
2022-07-28T17:43:50.208Z,94.50
2022-07-28T17:46:21.307Z,94.40
2022-07-28T17:48:48.523Z,93.80
2022-07-28T17:51:15.762Z,93.70
2022-07-28T17:53:44.514Z,93.90
2022-07-28T17:56:12.833Z,94.00
2022-07-28T17:58:40.952Z,94.10
2022-07-28T18:01:12.135Z,94.60
2022-07-28T18:03:58.979Z,94.50
2022-07-28T18:06:29.589Z,94.60
2022-07-28T18:08:56.618Z,94.90
2022-07-28T18:11:23.685Z,95.00
2022-07-28T18:14:15.711Z,94.90
2022-07-28T18:16:37.732Z,94.90
2022-07-28T18:19:04.772Z,95.30
2022-07-28T18:21:31.692Z,95.40
2022-07-28T18:24:01.930Z,98.80
2022-07-28T18:26:28.844Z,99.90
2022-07-28T18:28:55.797Z,99.90
2022-07-28T18:31:22.908Z,99.90
2022-07-28T18:33:50.006Z,99.90
2022-07-28T18:36:16.925Z,99.90
2022-07-28T18:38:43.896Z,99.90
2022-07-28T18:41:10.814Z,99.90
2022-07-28T18:43:37.733Z,99.90
2022-07-28T18:46:05.440Z,99.90
2022-07-28T18:48:32.408Z,99.90
2022-07-28T18:50:59.424Z,99.90
2022-07-28T18:53:26.778Z,99.90
2022-07-28T18:55:54.214Z,99.90
2022-07-28T18:58:21.228Z,99.90
2022-07-28T19:00:48.652Z,99.90
2022-07-28T19:03:15.737Z,99.90
2022-07-28T19:05:46.002Z,99.90
2022-07-28T19:08:13.531Z,99.90
2022-07-28T19:10:40.524Z,99.90
2022-07-28T19:13:09.127Z,99.90
2022-07-28T19:15:39.725Z,99.90
2022-07-28T19:18:11.459Z,99.90
2022-07-28T19:20:39.734Z,99.90
2022-07-28T19:23:07.116Z,99.90
2022-07-28T19:25:36.543Z,99.90
2022-07-28T19:28:03.980Z,99.90
2022-07-28T19:30:32.385Z,99.90
2022-07-28T19:32:59.741Z,99.90
2022-07-28T19:35:26.779Z,99.90
2022-07-28T19:37:55.501Z,99.90
2022-07-28T19:40:25.369Z,99.90
2022-07-28T19:42:53.574Z,99.90
2022-07-28T19:45:20.539Z,99.90
2022-07-28T19:47:49.670Z,99.90
2022-07-28T19:50:16.994Z,99.90
2022-07-28T19:52:44.013Z,99.90
2022-07-28T19:55:11.513Z,99.90
2022-07-28T19:57:42.294Z,99.90
2022-07-28T20:00:10.309Z,99.90
2022-07-28T20:02:37.976Z,99.90
2022-07-28T20:05:05.483Z,99.90
2022-07-28T20:07:32.553Z,99.90
2022-07-28T20:10:01.063Z,99.90
2022-07-28T20:12:32.811Z,99.90
2022-07-28T20:15:03.098Z,99.90
2022-07-28T20:17:38.632Z,99.90
2022-07-28T20:20:11.737Z,99.90
2022-07-28T20:22:39.377Z,99.90
2022-07-28T20:25:09.543Z,99.90
2022-07-28T20:27:40.621Z,99.90
2022-07-28T20:30:11.632Z,99.90
2022-07-28T20:32:39.287Z,99.90
2022-07-28T20:35:08.223Z,99.90
2022-07-28T20:37:36.445Z,99.90
2022-07-28T20:40:07.915Z,99.90
2022-07-28T20:42:35.490Z,99.90
2022-07-28T20:45:02.399Z,99.90
2022-07-28T20:47:31.877Z,99.90
2022-07-28T20:49:58.978Z,99.90
2022-07-28T20:52:25.947Z,99.90
2022-07-28T20:54:54.887Z,99.90
2022-07-28T20:57:22.613Z,99.90
2022-07-28T20:59:51.376Z,99.90
2022-07-28T21:02:19.035Z,99.90
2022-07-28T21:04:46.015Z,99.90
2022-07-28T21:08:00.697Z,99.90
2022-07-28T21:10:06.215Z,99.90
2022-07-28T21:12:33.984Z,99.90
2022-07-28T21:15:01.048Z,99.90
2022-07-28T21:17:28.180Z,99.90
2022-07-28T21:19:55.728Z,99.90
2022-07-28T21:22:23.237Z,99.90
2022-07-28T21:24:54.916Z,99.90
2022-07-28T21:27:22.943Z,99.90
2022-07-28T21:29:49.923Z,99.90
2022-07-28T21:32:17.052Z,99.90
2022-07-28T21:34:44.089Z,99.90
2022-07-28T21:37:13.061Z,99.90
2022-07-28T21:39:40.132Z,99.90
2022-07-28T21:42:09.257Z,99.90
2022-07-28T21:44:37.177Z,99.90
2022-07-28T21:47:04.460Z,99.90
2022-07-28T21:49:32.627Z,99.90
2022-07-28T21:52:00.020Z,99.90
2022-07-28T21:54:27.111Z,99.90
2022-07-28T21:56:54.055Z,99.90
2022-07-28T21:59:21.105Z,99.90
2022-07-28T22:01:48.299Z,99.90
2022-07-28T22:04:15.776Z,99.90
2022-07-28T22:06:44.707Z,99.90
2022-07-28T22:09:14.487Z,99.90
2022-07-28T22:11:41.816Z,99.90
2022-07-28T22:14:08.759Z,99.90
2022-07-28T22:16:35.743Z,99.90
2022-07-28T22:19:03.417Z,99.90
2022-07-28T22:21:30.298Z,99.90
2022-07-28T22:23:57.294Z,99.90
2022-07-28T22:26:24.286Z,99.90
2022-07-28T22:28:51.246Z,99.90
2022-07-28T22:31:18.296Z,99.90
2022-07-28T22:33:45.365Z,99.90
2022-07-28T22:36:12.252Z,99.90
2022-07-28T22:38:39.127Z,99.90
2022-07-28T22:41:06.015Z,99.90
2022-07-28T22:43:33.973Z,99.90
2022-07-28T22:46:01.013Z,99.90
2022-07-28T22:48:28.161Z,99.90
2022-07-28T22:50:55.115Z,99.90
2022-07-28T22:53:22.045Z,99.90
2022-07-28T22:55:49.334Z,99.90
2022-07-28T22:58:16.253Z,99.90
2022-07-28T23:00:43.682Z,99.90
2022-07-28T23:03:13.266Z,99.90
2022-07-28T23:05:42.645Z,99.90
2022-07-28T23:08:09.524Z,99.90
2022-07-28T23:10:37.713Z,99.90
2022-07-28T23:13:04.654Z,99.90
2022-07-28T23:15:41.102Z,99.90
2022-07-28T23:18:10.915Z,99.90
2022-07-28T23:20:38.827Z,99.90
2022-07-28T23:23:05.817Z,99.90
2022-07-28T23:25:33.040Z,99.90
2022-07-28T23:28:00.696Z,99.90
2022-07-28T23:30:27.579Z,99.90
2022-07-28T23:32:54.740Z,99.90
2022-07-28T23:35:21.747Z,99.90
2022-07-28T23:37:48.616Z,99.90
2022-07-28T23:40:15.642Z,99.90
2022-07-28T23:42:42.520Z,99.90
2022-07-28T23:45:09.768Z,99.90
2022-07-28T23:47:36.704Z,99.90
2022-07-28T23:50:04.395Z,99.90
2022-07-28T23:52:31.344Z,99.90
2022-07-28T23:54:58.554Z,99.90
2022-07-28T23:57:25.523Z,99.90
2022-07-28T23:59:58.580Z,99.90
